sensor_id;sensor_type;location;lat;lon;timestamp;P1;durP1;ratioP1;P2;durP2;ratioP2
21905;SDS011;11117;48.644;9.006;2022-07-01T00:01:09;4.23;;;1.20;;
21905;SDS011;11117;48.644;9.006;2022-07-01T00:03:34;1.47;;;1.17;;
21905;SDS011;11117;48.644;9.006;2022-07-01T00:06:00;2.93;;;1.27;;
21905;SDS011;11117;48.644;9.006;2022-07-01T00:08:25;2.63;;;0.90;;
21905;SDS011;11117;48.644;9.006;2022-07-01T00:10:51;2.63;;;0.90;;
21905;SDS011;11117;48.644;9.006;2022-07-01T00:13:16;3.07;;;0.90;;
21905;SDS011;11117;48.644;9.006;2022-07-01T00:15:42;0.60;;;0.60;;
21905;SDS011;11117;48.644;9.006;2022-07-01T00:18:07;1.40;;;0.60;;
21905;SDS011;11117;48.644;9.006;2022-07-01T00:20:33;1.17;;;0.70;;
21905;SDS011;11117;48.644;9.006;2022-07-01T00:22:59;3.67;;;0.73;;
21905;SDS011;11117;48.644;9.006;2022-07-01T00:25:24;1.03;;;0.60;;
21905;SDS011;11117;48.644;9.006;2022-07-01T00:27:50;0.97;;;0.90;;
21905;SDS011;11117;48.644;9.006;2022-07-01T00:30:15;1.20;;;0.80;;
21905;SDS011;11117;48.644;9.006;2022-07-01T00:32:41;2.57;;;1.13;;
21905;SDS011;11117;48.644;9.006;2022-07-01T00:35:07;5.10;;;1.00;;
21905;SDS011;11117;48.644;9.006;2022-07-01T00:37:33;3.50;;;1.13;;
21905;SDS011;11117;48.644;9.006;2022-07-01T00:39:58;0.73;;;0.60;;
21905;SDS011;11117;48.644;9.006;2022-07-01T00:42:24;2.47;;;0.83;;
21905;SDS011;11117;48.644;9.006;2022-07-01T00:44:49;7.00;;;0.70;;
21905;SDS011;11117;48.644;9.006;2022-07-01T00:47:15;2.00;;;0.67;;
21905;SDS011;11117;48.644;9.006;2022-07-01T00:49:40;1.63;;;0.73;;
21905;SDS011;11117;48.644;9.006;2022-07-01T00:52:07;1.20;;;0.77;;
21905;SDS011;11117;48.644;9.006;2022-07-01T00:54:34;3.13;;;0.60;;
21905;SDS011;11117;48.644;9.006;2022-07-01T00:57:08;0.83;;;0.60;;
21905;SDS011;11117;48.644;9.006;2022-07-01T00:59:35;3.30;;;0.67;;
21905;SDS011;11117;48.644;9.006;2022-07-01T01:02:02;1.97;;;1.07;;
21905;SDS011;11117;48.644;9.006;2022-07-01T01:04:28;3.47;;;1.00;;
21905;SDS011;11117;48.644;9.006;2022-07-01T01:06:53;1.50;;;0.80;;
21905;SDS011;11117;48.644;9.006;2022-07-01T01:09:19;1.80;;;0.70;;
21905;SDS011;11117;48.644;9.006;2022-07-01T01:11:44;2.43;;;0.57;;
21905;SDS011;11117;48.644;9.006;2022-07-01T01:14:10;1.93;;;0.80;;
21905;SDS011;11117;48.644;9.006;2022-07-01T01:16:36;1.23;;;0.90;;
21905;SDS011;11117;48.644;9.006;2022-07-01T01:19:04;1.13;;;0.80;;
21905;SDS011;11117;48.644;9.006;2022-07-01T01:21:30;4.90;;;0.70;;
21905;SDS011;11117;48.644;9.006;2022-07-01T01:23:57;0.63;;;0.50;;
21905;SDS011;11117;48.644;9.006;2022-07-01T01:26:22;3.03;;;0.60;;
21905;SDS011;11117;48.644;9.006;2022-07-01T01:28:48;1.40;;;0.60;;
21905;SDS011;11117;48.644;9.006;2022-07-01T01:31:15;0.70;;;0.50;;
21905;SDS011;11117;48.644;9.006;2022-07-01T01:33:41;1.10;;;0.70;;
21905;SDS011;11117;48.644;9.006;2022-07-01T01:36:07;0.80;;;0.60;;
21905;SDS011;11117;48.644;9.006;2022-07-01T01:38:34;1.03;;;0.60;;
21905;SDS011;11117;48.644;9.006;2022-07-01T01:41:00;2.30;;;0.50;;
21905;SDS011;11117;48.644;9.006;2022-07-01T01:43:27;2.13;;;0.47;;
21905;SDS011;11117;48.644;9.006;2022-07-01T01:45:52;2.30;;;0.80;;
21905;SDS011;11117;48.644;9.006;2022-07-01T01:48:18;1.80;;;0.70;;
21905;SDS011;11117;48.644;9.006;2022-07-01T01:50:43;4.03;;;0.60;;
21905;SDS011;11117;48.644;9.006;2022-07-01T01:53:09;1.33;;;0.67;;
21905;SDS011;11117;48.644;9.006;2022-07-01T01:55:34;1.33;;;0.60;;
21905;SDS011;11117;48.644;9.006;2022-07-01T01:58:00;1.57;;;0.70;;
21905;SDS011;11117;48.644;9.006;2022-07-01T02:00:26;1.23;;;0.70;;
21905;SDS011;11117;48.644;9.006;2022-07-01T02:02:51;1.17;;;0.70;;
21905;SDS011;11117;48.644;9.006;2022-07-01T02:05:17;0.77;;;0.63;;
21905;SDS011;11117;48.644;9.006;2022-07-01T02:07:42;2.73;;;0.90;;
21905;SDS011;11117;48.644;9.006;2022-07-01T02:10:08;1.70;;;0.90;;
21905;SDS011;11117;48.644;9.006;2022-07-01T02:12:34;2.53;;;1.57;;
21905;SDS011;11117;48.644;9.006;2022-07-01T02:14:59;2.10;;;1.37;;
21905;SDS011;11117;48.644;9.006;2022-07-01T02:17:25;3.13;;;1.20;;
21905;SDS011;11117;48.644;9.006;2022-07-01T02:19:50;1.23;;;1.10;;
21905;SDS011;11117;48.644;9.006;2022-07-01T02:22:16;2.10;;;1.20;;
21905;SDS011;11117;48.644;9.006;2022-07-01T02:24:42;2.43;;;1.43;;
21905;SDS011;11117;48.644;9.006;2022-07-01T02:27:07;2.60;;;1.27;;
21905;SDS011;11117;48.644;9.006;2022-07-01T02:29:33;2.77;;;1.63;;
21905;SDS011;11117;48.644;9.006;2022-07-01T02:31:58;4.67;;;1.77;;
21905;SDS011;11117;48.644;9.006;2022-07-01T02:34:24;2.93;;;1.87;;
21905;SDS011;11117;48.644;9.006;2022-07-01T02:36:49;4.40;;;1.80;;
21905;SDS011;11117;48.644;9.006;2022-07-01T02:39:15;1.83;;;1.60;;
21905;SDS011;11117;48.644;9.006;2022-07-01T02:41:41;3.63;;;1.50;;
21905;SDS011;11117;48.644;9.006;2022-07-01T02:44:06;4.43;;;1.90;;
21905;SDS011;11117;48.644;9.006;2022-07-01T02:46:32;2.50;;;1.60;;
21905;SDS011;11117;48.644;9.006;2022-07-01T02:48:57;2.10;;;1.67;;
21905;SDS011;11117;48.644;9.006;2022-07-01T02:51:23;2.00;;;1.50;;
21905;SDS011;11117;48.644;9.006;2022-07-01T02:53:48;2.10;;;1.63;;
21905;SDS011;11117;48.644;9.006;2022-07-01T02:56:14;3.13;;;1.60;;
21905;SDS011;11117;48.644;9.006;2022-07-01T02:58:39;3.27;;;1.53;;
21905;SDS011;11117;48.644;9.006;2022-07-01T03:01:05;3.57;;;1.60;;
21905;SDS011;11117;48.644;9.006;2022-07-01T03:03:31;5.13;;;1.50;;
21905;SDS011;11117;48.644;9.006;2022-07-01T03:05:56;2.80;;;2.10;;
21905;SDS011;11117;48.644;9.006;2022-07-01T03:08:22;3.07;;;1.97;;
21905;SDS011;11117;48.644;9.006;2022-07-01T03:10:47;2.47;;;1.87;;
21905;SDS011;11117;48.644;9.006;2022-07-01T03:13:13;2.50;;;1.90;;
21905;SDS011;11117;48.644;9.006;2022-07-01T03:15:38;5.57;;;2.00;;
21905;SDS011;11117;48.644;9.006;2022-07-01T03:18:04;2.47;;;2.23;;
21905;SDS011;11117;48.644;9.006;2022-07-01T03:20:29;2.23;;;1.80;;
21905;SDS011;11117;48.644;9.006;2022-07-01T03:22:55;4.90;;;2.10;;
21905;SDS011;11117;48.644;9.006;2022-07-01T03:25:20;2.63;;;2.00;;
21905;SDS011;11117;48.644;9.006;2022-07-01T03:27:46;2.17;;;1.97;;
21905;SDS011;11117;48.644;9.006;2022-07-01T03:30:12;2.30;;;1.87;;
21905;SDS011;11117;48.644;9.006;2022-07-01T03:32:38;2.57;;;1.77;;
21905;SDS011;11117;48.644;9.006;2022-07-01T03:35:04;3.73;;;1.93;;
21905;SDS011;11117;48.644;9.006;2022-07-01T03:37:30;2.03;;;1.73;;
21905;SDS011;11117;48.644;9.006;2022-07-01T03:39:55;2.60;;;1.93;;
21905;SDS011;11117;48.644;9.006;2022-07-01T03:42:21;2.17;;;1.97;;
21905;SDS011;11117;48.644;9.006;2022-07-01T03:44:46;2.07;;;1.77;;
21905;SDS011;11117;48.644;9.006;2022-07-01T03:47:12;1.73;;;1.63;;
21905;SDS011;11117;48.644;9.006;2022-07-01T03:49:37;2.87;;;1.80;;
21905;SDS011;11117;48.644;9.006;2022-07-01T03:52:03;2.00;;;1.80;;
21905;SDS011;11117;48.644;9.006;2022-07-01T03:54:30;2.70;;;1.67;;
21905;SDS011;11117;48.644;9.006;2022-07-01T03:57:03;2.30;;;1.60;;
21905;SDS011;11117;48.644;9.006;2022-07-01T03:59:34;2.47;;;1.77;;
21905;SDS011;11117;48.644;9.006;2022-07-01T04:02:01;1.60;;;1.50;;
21905;SDS011;11117;48.644;9.006;2022-07-01T04:04:27;3.43;;;1.60;;
21905;SDS011;11117;48.644;9.006;2022-07-01T04:06:53;9.00;;;1.70;;
21905;SDS011;11117;48.644;9.006;2022-07-01T04:09:20;2.73;;;1.40;;
21905;SDS011;11117;48.644;9.006;2022-07-01T04:11:47;1.60;;;1.40;;
21905;SDS011;11117;48.644;9.006;2022-07-01T04:14:13;3.63;;;1.40;;
21905;SDS011;11117;48.644;9.006;2022-07-01T04:16:40;4.70;;;1.60;;
21905;SDS011;11117;48.644;9.006;2022-07-01T04:19:06;5.20;;;1.30;;
21905;SDS011;11117;48.644;9.006;2022-07-01T04:21:33;2.23;;;1.43;;
21905;SDS011;11117;48.644;9.006;2022-07-01T04:23:59;1.60;;;1.30;;
21905;SDS011;11117;48.644;9.006;2022-07-01T04:26:25;1.80;;;1.50;;
21905;SDS011;11117;48.644;9.006;2022-07-01T04:28:51;2.60;;;1.50;;
21905;SDS011;11117;48.644;9.006;2022-07-01T04:31:17;1.73;;;1.30;;
21905;SDS011;11117;48.644;9.006;2022-07-01T04:33:44;6.50;;;1.50;;
21905;SDS011;11117;48.644;9.006;2022-07-01T04:36:10;3.47;;;1.40;;
21905;SDS011;11117;48.644;9.006;2022-07-01T04:38:36;1.70;;;1.37;;
21905;SDS011;11117;48.644;9.006;2022-07-01T04:41:01;2.93;;;1.40;;
21905;SDS011;11117;48.644;9.006;2022-07-01T04:43:27;3.70;;;1.10;;
21905;SDS011;11117;48.644;9.006;2022-07-01T04:45:52;4.53;;;1.53;;
21905;SDS011;11117;48.644;9.006;2022-07-01T04:48:18;5.10;;;1.60;;
21905;SDS011;11117;48.644;9.006;2022-07-01T04:50:43;3.53;;;1.30;;
21905;SDS011;11117;48.644;9.006;2022-07-01T04:53:09;1.33;;;1.03;;
21905;SDS011;11117;48.644;9.006;2022-07-01T04:55:38;1.23;;;1.03;;
21905;SDS011;11117;48.644;9.006;2022-07-01T04:58:03;2.73;;;1.13;;
21905;SDS011;11117;48.644;9.006;2022-07-01T05:00:29;1.07;;;0.87;;
21905;SDS011;11117;48.644;9.006;2022-07-01T05:02:55;1.03;;;0.90;;
21905;SDS011;11117;48.644;9.006;2022-07-01T05:05:20;1.77;;;0.83;;
21905;SDS011;11117;48.644;9.006;2022-07-01T05:07:46;1.00;;;0.73;;
21905;SDS011;11117;48.644;9.006;2022-07-01T05:10:12;1.67;;;0.80;;
21905;SDS011;11117;48.644;9.006;2022-07-01T05:12:37;3.30;;;0.80;;
21905;SDS011;11117;48.644;9.006;2022-07-01T05:15:03;1.27;;;0.80;;
21905;SDS011;11117;48.644;9.006;2022-07-01T05:17:29;2.77;;;0.70;;
21905;SDS011;11117;48.644;9.006;2022-07-01T05:19:54;0.83;;;0.80;;
21905;SDS011;11117;48.644;9.006;2022-07-01T05:22:20;3.13;;;0.80;;
21905;SDS011;11117;48.644;9.006;2022-07-01T05:24:45;1.20;;;0.77;;
21905;SDS011;11117;48.644;9.006;2022-07-01T05:27:11;1.67;;;0.70;;
21905;SDS011;11117;48.644;9.006;2022-07-01T05:29:36;1.43;;;0.53;;
21905;SDS011;11117;48.644;9.006;2022-07-01T05:32:02;1.30;;;0.50;;
21905;SDS011;11117;48.644;9.006;2022-07-01T05:34:28;0.90;;;0.70;;
21905;SDS011;11117;48.644;9.006;2022-07-01T05:36:53;0.60;;;0.50;;
21905;SDS011;11117;48.644;9.006;2022-07-01T05:39:19;0.77;;;0.47;;
21905;SDS011;11117;48.644;9.006;2022-07-01T05:41:44;2.73;;;0.43;;
21905;SDS011;11117;48.644;9.006;2022-07-01T05:44:10;4.00;;;0.43;;
21905;SDS011;11117;48.644;9.006;2022-07-01T05:46:36;0.60;;;0.40;;
21905;SDS011;11117;48.644;9.006;2022-07-01T05:49:01;0.40;;;0.30;;
21905;SDS011;11117;48.644;9.006;2022-07-01T05:51:27;1.90;;;0.30;;
21905;SDS011;11117;48.644;9.006;2022-07-01T05:53:53;0.30;;;0.30;;
21905;SDS011;11117;48.644;9.006;2022-07-01T05:56:19;0.70;;;0.40;;
21905;SDS011;11117;48.644;9.006;2022-07-01T05:58:44;2.70;;;0.70;;
21905;SDS011;11117;48.644;9.006;2022-07-01T06:01:10;1.37;;;0.50;;
21905;SDS011;11117;48.644;9.006;2022-07-01T06:03:35;0.40;;;0.30;;
21905;SDS011;11117;48.644;9.006;2022-07-01T06:06:01;2.10;;;0.50;;
21905;SDS011;11117;48.644;9.006;2022-07-01T06:08:27;2.37;;;0.47;;
21905;SDS011;11117;48.644;9.006;2022-07-01T06:10:52;1.23;;;0.50;;
21905;SDS011;11117;48.644;9.006;2022-07-01T06:13:18;0.80;;;0.40;;
21905;SDS011;11117;48.644;9.006;2022-07-01T06:15:43;0.97;;;0.60;;
21905;SDS011;11117;48.644;9.006;2022-07-01T06:18:09;1.57;;;0.50;;
21905;SDS011;11117;48.644;9.006;2022-07-01T06:20:35;1.20;;;0.50;;
21905;SDS011;11117;48.644;9.006;2022-07-01T06:23:00;0.60;;;0.40;;
21905;SDS011;11117;48.644;9.006;2022-07-01T06:25:26;3.07;;;0.50;;
21905;SDS011;11117;48.644;9.006;2022-07-01T06:27:51;0.40;;;0.40;;
21905;SDS011;11117;48.644;9.006;2022-07-01T06:30:17;1.00;;;0.60;;
21905;SDS011;11117;48.644;9.006;2022-07-01T06:32:42;2.40;;;0.50;;
21905;SDS011;11117;48.644;9.006;2022-07-01T06:35:08;1.67;;;0.47;;
21905;SDS011;11117;48.644;9.006;2022-07-01T06:37:37;0.47;;;0.47;;
21905;SDS011;11117;48.644;9.006;2022-07-01T06:40:14;2.10;;;1.03;;
21905;SDS011;11117;48.644;9.006;2022-07-01T06:43:19;0.43;;;0.40;;
21905;SDS011;11117;48.644;9.006;2022-07-01T06:45:47;1.53;;;0.60;;
21905;SDS011;11117;48.644;9.006;2022-07-01T06:48:13;2.07;;;0.77;;
21905;SDS011;11117;48.644;9.006;2022-07-01T06:50:38;0.77;;;0.50;;
21905;SDS011;11117;48.644;9.006;2022-07-01T06:53:04;2.10;;;0.53;;
21905;SDS011;11117;48.644;9.006;2022-07-01T06:55:29;3.03;;;0.90;;
21905;SDS011;11117;48.644;9.006;2022-07-01T06:57:55;0.93;;;0.50;;
21905;SDS011;11117;48.644;9.006;2022-07-01T07:00:20;3.67;;;1.20;;
21905;SDS011;11117;48.644;9.006;2022-07-01T07:02:46;1.37;;;0.40;;
21905;SDS011;11117;48.644;9.006;2022-07-01T07:05:12;0.70;;;0.40;;
21905;SDS011;11117;48.644;9.006;2022-07-01T07:07:37;1.93;;;0.63;;
21905;SDS011;11117;48.644;9.006;2022-07-01T07:10:03;0.97;;;0.60;;
21905;SDS011;11117;48.644;9.006;2022-07-01T07:12:29;0.53;;;0.40;;
21905;SDS011;11117;48.644;9.006;2022-07-01T07:14:54;1.23;;;0.47;;
21905;SDS011;11117;48.644;9.006;2022-07-01T07:17:20;0.83;;;0.60;;
21905;SDS011;11117;48.644;9.006;2022-07-01T07:19:48;3.80;;;1.27;;
21905;SDS011;11117;48.644;9.006;2022-07-01T07:22:35;2.53;;;0.87;;
21905;SDS011;11117;48.644;9.006;2022-07-01T07:25:12;0.43;;;0.33;;
21905;SDS011;11117;48.644;9.006;2022-07-01T07:28:36;0.67;;;0.43;;
21905;SDS011;11117;48.644;9.006;2022-07-01T07:31:15;0.52;;;0.40;;
21905;SDS011;11117;48.644;9.006;2022-07-01T07:34:16;2.87;;;0.70;;
21905;SDS011;11117;48.644;9.006;2022-07-01T07:37:08;3.70;;;0.50;;
21905;SDS011;11117;48.644;9.006;2022-07-01T07:39:52;0.50;;;0.50;;
21905;SDS011;11117;48.644;9.006;2022-07-01T07:42:26;0.83;;;0.40;;
21905;SDS011;11117;48.644;9.006;2022-07-01T07:45:11;0.70;;;0.40;;
21905;SDS011;11117;48.644;9.006;2022-07-01T07:48:08;1.03;;;0.53;;
21905;SDS011;11117;48.644;9.006;2022-07-01T07:50:37;0.60;;;0.40;;
21905;SDS011;11117;48.644;9.006;2022-07-01T07:53:05;1.07;;;0.60;;
21905;SDS011;11117;48.644;9.006;2022-07-01T07:55:31;0.67;;;0.30;;
21905;SDS011;11117;48.644;9.006;2022-07-01T07:57:56;0.40;;;0.30;;
21905;SDS011;11117;48.644;9.006;2022-07-01T08:00:22;4.20;;;0.60;;
21905;SDS011;11117;48.644;9.006;2022-07-01T08:02:48;1.53;;;0.40;;
21905;SDS011;11117;48.644;9.006;2022-07-01T08:05:13;4.00;;;0.70;;
21905;SDS011;11117;48.644;9.006;2022-07-01T08:07:40;2.70;;;0.60;;
21905;SDS011;11117;48.644;9.006;2022-07-01T08:10:07;2.50;;;0.37;;
21905;SDS011;11117;48.644;9.006;2022-07-01T08:12:34;0.67;;;0.40;;
21905;SDS011;11117;48.644;9.006;2022-07-01T08:15:00;1.50;;;0.68;;
21905;SDS011;11117;48.644;9.006;2022-07-01T08:17:31;0.95;;;0.50;;
21905;SDS011;11117;48.644;9.006;2022-07-01T08:20:00;1.80;;;1.70;;
21905;SDS011;11117;48.644;9.006;2022-07-01T08:22:51;3.70;;;0.80;;
21905;SDS011;11117;48.644;9.006;2022-07-01T08:25:32;0.52;;;0.52;;
21905;SDS011;11117;48.644;9.006;2022-07-01T08:28:03;1.20;;;0.45;;
21905;SDS011;11117;48.644;9.006;2022-07-01T08:33:54;0.47;;;0.40;;
21905;SDS011;11117;48.644;9.006;2022-07-01T08:39:07;1.00;;;0.60;;
21905;SDS011;11117;48.644;9.006;2022-07-01T08:41:40;0.50;;;0.47;;
21905;SDS011;11117;48.644;9.006;2022-07-01T08:44:06;1.10;;;0.67;;
21905;SDS011;11117;48.644;9.006;2022-07-01T08:46:53;1.05;;;0.40;;
21905;SDS011;11117;48.644;9.006;2022-07-01T08:50:05;1.33;;;0.70;;
21905;SDS011;11117;48.644;9.006;2022-07-01T08:52:17;2.30;;;0.60;;
21905;SDS011;11117;48.644;9.006;2022-07-01T08:54:43;2.58;;;0.60;;
21905;SDS011;11117;48.644;9.006;2022-07-01T08:57:08;1.30;;;0.80;;
21905;SDS011;11117;48.644;9.006;2022-07-01T08:59:34;1.88;;;1.17;;
21905;SDS011;11117;48.644;9.006;2022-07-01T09:02:01;2.93;;;1.40;;
21905;SDS011;11117;48.644;9.006;2022-07-01T09:04:28;3.08;;;1.70;;
21905;SDS011;11117;48.644;9.006;2022-07-01T09:07:00;1.95;;;0.90;;
21905;SDS011;11117;48.644;9.006;2022-07-01T09:09:32;1.52;;;0.70;;
21905;SDS011;11117;48.644;9.006;2022-07-01T09:12:02;0.93;;;0.63;;
21905;SDS011;11117;48.644;9.006;2022-07-01T09:14:28;2.87;;;0.40;;
21905;SDS011;11117;48.644;9.006;2022-07-01T09:16:56;1.42;;;1.10;;
21905;SDS011;11117;48.644;9.006;2022-07-01T09:19:23;1.05;;;0.90;;
21905;SDS011;11117;48.644;9.006;2022-07-01T09:21:52;2.87;;;0.63;;
21905;SDS011;11117;48.644;9.006;2022-07-01T09:24:30;1.15;;;0.50;;
21905;SDS011;11117;48.644;9.006;2022-07-01T09:26:58;1.38;;;0.60;;
21905;SDS011;11117;48.644;9.006;2022-07-01T09:29:26;0.80;;;0.40;;
21905;SDS011;11117;48.644;9.006;2022-07-01T09:31:58;1.23;;;0.63;;
21905;SDS011;11117;48.644;9.006;2022-07-01T09:37:34;0.50;;;0.50;;
21905;SDS011;11117;48.644;9.006;2022-07-01T09:40:00;1.48;;;0.40;;
21905;SDS011;11117;48.644;9.006;2022-07-01T09:42:26;1.58;;;0.50;;
21905;SDS011;11117;48.644;9.006;2022-07-01T09:45:05;1.35;;;0.63;;
21905;SDS011;11117;48.644;9.006;2022-07-01T09:48:58;0.95;;;0.40;;
21905;SDS011;11117;48.644;9.006;2022-07-01T09:54:16;2.63;;;0.60;;
21905;SDS011;11117;48.644;9.006;2022-07-01T09:59:51;0.98;;;0.43;;
21905;SDS011;11117;48.644;9.006;2022-07-01T10:02:17;0.50;;;0.40;;
21905;SDS011;11117;48.644;9.006;2022-07-01T10:04:58;0.60;;;0.50;;
21905;SDS011;11117;48.644;9.006;2022-07-01T10:13:14;0.57;;;0.38;;
21905;SDS011;11117;48.644;9.006;2022-07-01T10:15:42;3.60;;;0.60;;
21905;SDS011;11117;48.644;9.006;2022-07-01T10:18:22;1.38;;;0.50;;
21905;SDS011;11117;48.644;9.006;2022-07-01T10:20:49;1.25;;;0.50;;
21905;SDS011;11117;48.644;9.006;2022-07-01T10:23:17;2.40;;;0.50;;
21905;SDS011;11117;48.644;9.006;2022-07-01T10:25:46;2.72;;;0.50;;
21905;SDS011;11117;48.644;9.006;2022-07-01T10:28:13;1.90;;;0.50;;
21905;SDS011;11117;48.644;9.006;2022-07-01T10:41:37;1.25;;;0.70;;
21905;SDS011;11117;48.644;9.006;2022-07-01T10:44:16;1.98;;;0.60;;
21905;SDS011;11117;48.644;9.006;2022-07-01T10:53:03;0.80;;;0.80;;
21905;SDS011;11117;48.644;9.006;2022-07-01T10:56:01;1.55;;;0.60;;
21905;SDS011;11117;48.644;9.006;2022-07-01T10:58:39;0.40;;;0.40;;
21905;SDS011;11117;48.644;9.006;2022-07-01T11:01:17;1.55;;;0.82;;
21905;SDS011;11117;48.644;9.006;2022-07-01T11:03:43;1.85;;;0.70;;
21905;SDS011;11117;48.644;9.006;2022-07-01T11:06:14;0.93;;;0.50;;
21905;SDS011;11117;48.644;9.006;2022-07-01T11:08:46;1.27;;;0.40;;
21905;SDS011;11117;48.644;9.006;2022-07-01T11:11:13;0.95;;;0.50;;
21905;SDS011;11117;48.644;9.006;2022-07-01T11:13:39;0.68;;;0.47;;
21905;SDS011;11117;48.644;9.006;2022-07-01T11:16:05;0.93;;;0.70;;
21905;SDS011;11117;48.644;9.006;2022-07-01T11:18:30;3.38;;;0.60;;
21905;SDS011;11117;48.644;9.006;2022-07-01T11:21:06;3.55;;;0.40;;
21905;SDS011;11117;48.644;9.006;2022-07-01T11:23:32;2.03;;;0.80;;
21905;SDS011;11117;48.644;9.006;2022-07-01T11:25:58;2.08;;;0.60;;
21905;SDS011;11117;48.644;9.006;2022-07-01T11:28:24;0.50;;;0.50;;
21905;SDS011;11117;48.644;9.006;2022-07-01T11:30:57;3.42;;;0.55;;
21905;SDS011;11117;48.644;9.006;2022-07-01T11:33:26;0.65;;;0.50;;
21905;SDS011;11117;48.644;9.006;2022-07-01T11:35:52;4.93;;;0.57;;
21905;SDS011;11117;48.644;9.006;2022-07-01T11:38:19;1.17;;;0.68;;
21905;SDS011;11117;48.644;9.006;2022-07-01T11:40:47;2.80;;;0.60;;
21905;SDS011;11117;48.644;9.006;2022-07-01T11:43:19;0.80;;;0.63;;
21905;SDS011;11117;48.644;9.006;2022-07-01T11:45:53;1.67;;;0.50;;
21905;SDS011;11117;48.644;9.006;2022-07-01T11:48:33;0.70;;;0.50;;
21905;SDS011;11117;48.644;9.006;2022-07-01T11:51:05;2.38;;;0.50;;
21905;SDS011;11117;48.644;9.006;2022-07-01T11:53:37;1.48;;;0.60;;
21905;SDS011;11117;48.644;9.006;2022-07-01T11:56:06;3.95;;;0.73;;
21905;SDS011;11117;48.644;9.006;2022-07-01T11:58:42;0.95;;;0.55;;
21905;SDS011;11117;48.644;9.006;2022-07-01T12:01:09;0.95;;;0.60;;
21905;SDS011;11117;48.644;9.006;2022-07-01T12:03:44;2.40;;;0.70;;
21905;SDS011;11117;48.644;9.006;2022-07-01T12:06:09;5.30;;;0.70;;
21905;SDS011;11117;48.644;9.006;2022-07-01T12:08:35;2.05;;;0.70;;
21905;SDS011;11117;48.644;9.006;2022-07-01T12:11:01;1.17;;;0.70;;
21905;SDS011;11117;48.644;9.006;2022-07-01T12:13:27;1.75;;;0.60;;
21905;SDS011;11117;48.644;9.006;2022-07-01T12:15:52;0.35;;;0.35;;
21905;SDS011;11117;48.644;9.006;2022-07-01T12:18:18;3.45;;;0.60;;
21905;SDS011;11117;48.644;9.006;2022-07-01T12:20:49;1.15;;;0.70;;
21905;SDS011;11117;48.644;9.006;2022-07-01T12:23:18;0.95;;;0.68;;
21905;SDS011;11117;48.644;9.006;2022-07-01T12:28:39;1.55;;;0.65;;
21905;SDS011;11117;48.644;9.006;2022-07-01T12:31:09;1.48;;;0.50;;
21905;SDS011;11117;48.644;9.006;2022-07-01T12:33:39;1.20;;;0.50;;
21905;SDS011;11117;48.644;9.006;2022-07-01T12:36:19;0.85;;;0.50;;
21905;SDS011;11117;48.644;9.006;2022-07-01T12:38:44;1.55;;;0.70;;
21905;SDS011;11117;48.644;9.006;2022-07-01T12:44:06;1.67;;;0.55;;
21905;SDS011;11117;48.644;9.006;2022-07-01T12:46:48;0.60;;;0.60;;
21905;SDS011;11117;48.644;9.006;2022-07-01T12:49:18;2.70;;;0.60;;
21905;SDS011;11117;48.644;9.006;2022-07-01T12:51:51;0.43;;;0.40;;
21905;SDS011;11117;48.644;9.006;2022-07-01T12:54:30;2.40;;;0.60;;
21905;SDS011;11117;48.644;9.006;2022-07-01T12:57:02;2.17;;;0.60;;
21905;SDS011;11117;48.644;9.006;2022-07-01T12:59:28;0.85;;;0.60;;
21905;SDS011;11117;48.644;9.006;2022-07-01T13:01:53;1.90;;;0.50;;
21905;SDS011;11117;48.644;9.006;2022-07-01T13:04:28;1.55;;;0.60;;
21905;SDS011;11117;48.644;9.006;2022-07-01T13:06:54;2.75;;;0.70;;
21905;SDS011;11117;48.644;9.006;2022-07-01T13:09:20;0.32;;;0.32;;
21905;SDS011;11117;48.644;9.006;2022-07-01T13:11:45;0.90;;;0.52;;
21905;SDS011;11117;48.644;9.006;2022-07-01T13:14:11;0.63;;;0.50;;
21905;SDS011;11117;48.644;9.006;2022-07-01T13:16:37;1.10;;;0.57;;
21905;SDS011;11117;48.644;9.006;2022-07-01T13:19:03;3.03;;;0.60;;
21905;SDS011;11117;48.644;9.006;2022-07-01T13:21:28;1.52;;;0.68;;
21905;SDS011;11117;48.644;9.006;2022-07-01T13:23:55;6.70;;;0.70;;
21905;SDS011;11117;48.644;9.006;2022-07-01T13:26:20;4.28;;;0.80;;
21905;SDS011;11117;48.644;9.006;2022-07-01T13:28:46;2.22;;;0.68;;
21905;SDS011;11117;48.644;9.006;2022-07-01T13:31:12;1.48;;;0.40;;
21905;SDS011;11117;48.644;9.006;2022-07-01T13:33:38;1.05;;;0.50;;
21905;SDS011;11117;48.644;9.006;2022-07-01T13:36:03;0.50;;;0.50;;
21905;SDS011;11117;48.644;9.006;2022-07-01T13:38:30;1.20;;;0.30;;
21905;SDS011;11117;48.644;9.006;2022-07-01T13:40:55;3.40;;;0.50;;
21905;SDS011;11117;48.644;9.006;2022-07-01T13:43:21;2.10;;;0.70;;
21905;SDS011;11117;48.644;9.006;2022-07-01T13:45:47;1.08;;;0.55;;
21905;SDS011;11117;48.644;9.006;2022-07-01T13:48:12;1.75;;;0.57;;
21905;SDS011;11117;48.644;9.006;2022-07-01T13:50:38;1.20;;;0.50;;
21905;SDS011;11117;48.644;9.006;2022-07-01T13:53:04;3.95;;;0.60;;
21905;SDS011;11117;48.644;9.006;2022-07-01T13:55:32;1.05;;;0.50;;
21905;SDS011;11117;48.644;9.006;2022-07-01T13:57:58;1.83;;;0.50;;
21905;SDS011;11117;48.644;9.006;2022-07-01T14:00:23;3.13;;;0.60;;
21905;SDS011;11117;48.644;9.006;2022-07-01T14:02:49;4.45;;;0.70;;
21905;SDS011;11117;48.644;9.006;2022-07-01T14:05:15;1.02;;;0.40;;
21905;SDS011;11117;48.644;9.006;2022-07-01T14:07:43;3.40;;;0.50;;
21905;SDS011;11117;48.644;9.006;2022-07-01T14:10:09;1.85;;;0.60;;
21905;SDS011;11117;48.644;9.006;2022-07-01T14:12:34;0.93;;;0.50;;
21905;SDS011;11117;48.644;9.006;2022-07-01T14:15:00;1.45;;;0.70;;
21905;SDS011;11117;48.644;9.006;2022-07-01T14:17:26;1.35;;;0.75;;
21905;SDS011;11117;48.644;9.006;2022-07-01T14:19:55;1.42;;;0.63;;
21905;SDS011;11117;48.644;9.006;2022-07-01T14:22:20;3.20;;;0.60;;
21905;SDS011;11117;48.644;9.006;2022-07-01T14:24:46;1.67;;;0.70;;
21905;SDS011;11117;48.644;9.006;2022-07-01T14:27:14;0.70;;;0.60;;
21905;SDS011;11117;48.644;9.006;2022-07-01T14:29:40;1.33;;;0.80;;
21905;SDS011;11117;48.644;9.006;2022-07-01T14:32:06;1.15;;;0.60;;
21905;SDS011;11117;48.644;9.006;2022-07-01T14:34:32;1.55;;;0.68;;
21905;SDS011;11117;48.644;9.006;2022-07-01T14:36:58;0.82;;;0.70;;
21905;SDS011;11117;48.644;9.006;2022-07-01T14:39:23;2.53;;;0.70;;
21905;SDS011;11117;48.644;9.006;2022-07-01T14:41:49;1.27;;;0.85;;
21905;SDS011;11117;48.644;9.006;2022-07-01T14:44:17;0.65;;;0.60;;
21905;SDS011;11117;48.644;9.006;2022-07-01T14:46:43;1.05;;;0.60;;
21905;SDS011;11117;48.644;9.006;2022-07-01T14:49:09;0.68;;;0.55;;
21905;SDS011;11117;48.644;9.006;2022-07-01T14:51:34;1.88;;;0.60;;
21905;SDS011;11117;48.644;9.006;2022-07-01T14:54:00;1.23;;;0.60;;
21905;SDS011;11117;48.644;9.006;2022-07-01T14:56:26;1.45;;;0.70;;
21905;SDS011;11117;48.644;9.006;2022-07-01T14:58:54;3.22;;;0.70;;
21905;SDS011;11117;48.644;9.006;2022-07-01T15:01:20;1.00;;;0.50;;
21905;SDS011;11117;48.644;9.006;2022-07-01T15:03:45;1.15;;;0.60;;
21905;SDS011;11117;48.644;9.006;2022-07-01T15:06:11;1.55;;;0.60;;
21905;SDS011;11117;48.644;9.006;2022-07-01T15:08:37;0.60;;;0.60;;
21905;SDS011;11117;48.644;9.006;2022-07-01T15:11:03;2.15;;;0.73;;
21905;SDS011;11117;48.644;9.006;2022-07-01T15:13:32;1.55;;;0.60;;
21905;SDS011;11117;48.644;9.006;2022-07-01T15:15:58;0.60;;;0.47;;
21905;SDS011;11117;48.644;9.006;2022-07-01T15:18:33;1.92;;;0.65;;
21905;SDS011;11117;48.644;9.006;2022-07-01T15:21:06;1.42;;;0.50;;
21905;SDS011;11117;48.644;9.006;2022-07-01T15:23:31;0.73;;;0.60;;
21905;SDS011;11117;48.644;9.006;2022-07-01T15:25:57;1.35;;;0.52;;
21905;SDS011;11117;48.644;9.006;2022-07-01T15:28:22;0.88;;;0.50;;
21905;SDS011;11117;48.644;9.006;2022-07-01T15:30:48;1.00;;;0.63;;
21905;SDS011;11117;48.644;9.006;2022-07-01T15:33:16;0.50;;;0.50;;
21905;SDS011;11117;48.644;9.006;2022-07-01T15:50:05;0.47;;;0.35;;
21905;SDS011;11117;48.644;9.006;2022-07-01T17:23:39;1.95;;;0.75;;